Time;durP1;ratioP1;P1;durP2;ratioP2;P2;SDS_P1;SDS_P2;PMS_P1;PMS_P2;Temp;Humidity;BMP_temperature;BMP_pressure;BME280_temperature;BME280_humidity;BME280_pressure;Samples;Min_cycle;Max_cycle;Signal;HPM_P1;HPM_P2
2021/10/28 00:12:56;;;;;;;7.65;4.70;;;3.50;99.90;;;;;;5034743;28;20486;-89
2021/10/28 00:15:28;;;;;;;6.82;4.30;;;3.40;99.90;;;;;;5033658;28;20132;-89
2021/10/28 00:20:29;;;;;;;6.60;5.15;;;3.30;99.90;;;;;;5034825;28;20049;-93
2021/10/28 00:22:56;;;;;;;6.35;5.20;;;3.30;99.90;;;;;;5033109;28;20113;-89
2021/10/28 00:25:23;;;;;;;5.07;4.55;;;3.20;99.90;;;;;;5033491;28;20469;-90
2021/10/28 00:27:50;;;;;;;6.32;4.85;;;3.20;99.90;;;;;;5033088;28;20101;-89
2021/10/28 00:30:19;;;;;;;7.40;4.97;;;3.20;99.90;;;;;;5033552;28;20051;-90
2021/10/28 00:32:46;;;;;;;6.45;4.95;;;3.10;99.90;;;;;;5033047;28;20084;-90
2021/10/28 00:35:13;;;;;;;7.60;4.43;;;3.10;99.90;;;;;;5025275;28;20124;-90
2021/10/28 00:37:41;;;;;;;5.72;5.20;;;3.10;99.90;;;;;;5026875;28;20480;-89
2021/10/28 00:40:09;;;;;;;8.70;5.45;;;3.10;99.90;;;;;;5010398;28;20054;-89
2021/10/28 00:42:37;;;;;;;8.00;5.57;;;3.20;99.90;;;;;;5003363;28;20050;-90
2021/10/28 00:45:05;;;;;;;13.77;5.57;;;3.20;99.90;;;;;;4997717;28;20046;-90
2021/10/28 00:47:34;;;;;;;5.47;4.70;;;3.20;99.90;;;;;;5015759;28;20057;-90
2021/10/28 00:50:02;;;;;;;5.47;4.97;;;3.20;99.90;;;;;;5010595;28;20137;-89
2021/10/28 00:52:29;;;;;;;7.30;5.40;;;3.10;99.90;;;;;;4996537;28;20060;-89
2021/10/28 00:54:56;;;;;;;5.80;5.15;;;3.10;99.90;;;;;;4997339;28;20406;-90
2021/10/28 00:57:22;;;;;;;10.13;7.18;;;3.10;99.90;;;;;;4997034;28;20046;-90
2021/10/28 00:59:49;;;;;;;13.32;7.22;;;3.00;99.90;;;;;;4996867;28;20141;-90
2021/10/28 01:02:16;;;;;;;24.55;13.07;;;3.00;99.90;;;;;;4996558;28;20050;-91
2021/10/28 01:04:43;;;;;;;25.30;12.63;;;3.00;99.90;;;;;;4998216;28;20053;-90
2021/10/28 01:07:10;;;;;;;19.08;12.57;;;2.90;99.90;;;;;;5000799;28;20136;-90
2021/10/28 01:09:37;;;;;;;21.00;13.32;;;2.90;99.90;;;;;;5000959;28;20487;-90
2021/10/28 01:12:04;;;;;;;17.80;11.07;;;2.80;99.90;;;;;;5000855;28;20134;-89
2021/10/28 01:14:45;;;;;;;25.00;13.80;;;2.70;99.90;;;;;;5000791;28;20068;-89
2021/10/28 01:17:13;;;;;;;22.13;13.15;;;2.80;99.90;;;;;;5000618;28;20053;-89
2021/10/28 01:19:41;;;;;;;26.42;14.82;;;2.70;99.90;;;;;;5000711;28;20053;-90
2021/10/28 01:22:08;;;;;;;31.30;17.63;;;2.70;99.90;;;;;;5000521;28;20057;-89
2021/10/28 01:24:35;;;;;;;41.85;22.10;;;2.70;99.90;;;;;;5000942;28;20413;-90
2021/10/28 01:27:08;;;;;;;47.03;25.88;;;2.70;99.90;;;;;;5000514;28;20053;-89
2021/10/28 01:29:35;;;;;;;42.40;24.17;;;2.70;99.90;;;;;;5000704;28;20073;-90
2021/10/28 01:32:04;;;;;;;41.65;22.42;;;2.70;99.90;;;;;;5000468;28;20136;-90
2021/10/28 01:34:30;;;;;;;38.00;20.15;;;2.70;99.90;;;;;;5000641;28;20049;-91
2021/10/28 01:36:59;;;;;;;30.13;17.33;;;2.60;99.90;;;;;;5000277;28;20136;-91
2021/10/28 01:39:26;;;;;;;22.73;13.85;;;2.60;99.90;;;;;;5008612;28;20108;-89
2021/10/28 01:41:54;;;;;;;19.55;11.52;;;2.60;99.90;;;;;;5019884;28;20049;-89
2021/10/28 01:44:21;;;;;;;20.77;12.93;;;2.50;99.90;;;;;;5020131;28;20077;-89
2021/10/28 01:46:49;;;;;;;17.52;11.05;;;2.50;99.90;;;;;;5020329;28;20149;-89
2021/10/28 01:49:34;;;;;;;15.18;9.57;;;2.40;99.90;;;;;;5020495;28;20117;-89
2021/10/28 01:52:01;;;;;;;11.07;8.15;;;2.40;99.90;;;;;;5019731;28;20494;-89
2021/10/28 01:54:29;;;;;;;10.02;7.32;;;2.40;99.90;;;;;;5019901;28;20063;-91
2021/10/28 01:56:56;;;;;;;8.68;7.10;;;2.40;99.90;;;;;;5019956;28;20140;-89
2021/10/28 01:59:23;;;;;;;10.95;7.32;;;2.40;99.90;;;;;;5019449;28;20045;-90
2021/10/28 02:01:49;;;;;;;8.25;6.57;;;2.30;99.90;;;;;;5019760;28;20050;-89
2021/10/28 02:04:17;;;;;;;6.45;5.72;;;2.30;99.90;;;;;;5023444;28;20049;-89
2021/10/28 02:06:43;;;;;;;9.15;6.57;;;2.30;99.90;;;;;;5039967;28;20065;-89
2021/10/28 02:09:11;;;;;;;12.52;6.25;;;2.20;99.90;;;;;;5025142;28;20054;-91
2021/10/28 02:11:38;;;;;;;8.07;5.50;;;2.20;99.90;;;;;;5019525;28;20061;-89
2021/10/28 02:14:05;;;;;;;12.00;6.72;;;2.20;99.90;;;;;;5019157;28;20067;-89
2021/10/28 02:16:34;;;;;;;7.07;6.05;;;2.20;99.90;;;;;;5018438;28;20046;-88
2021/10/28 02:19:02;;;;;;;10.25;6.10;;;2.20;99.90;;;;;;5019290;28;20056;-89
2021/10/28 02:21:29;;;;;;;13.25;6.03;;;2.20;99.90;;;;;;5019156;28;20422;-89
2021/10/28 02:23:57;;;;;;;8.77;6.38;;;2.20;99.90;;;;;;5019217;28;20049;-89
2021/10/28 02:26:25;;;;;;;9.15;6.00;;;2.20;99.90;;;;;;5019150;28;20128;-89
2021/10/28 02:28:54;;;;;;;9.02;6.22;;;2.20;99.90;;;;;;5018883;28;20046;-89
2021/10/28 02:31:20;;;;;;;8.40;5.95;;;2.20;99.90;;;;;;5019052;28;20124;-89
2021/10/28 02:33:47;;;;;;;9.90;6.25;;;2.20;99.90;;;;;;5018663;28;20077;-91
2021/10/28 02:36:14;;;;;;;8.65;5.50;;;2.10;99.90;;;;;;5018397;28;20147;-91
2021/10/28 02:38:42;;;;;;;7.00;5.55;;;2.00;99.90;;;;;;5018626;28;20045;-91
2021/10/28 02:41:09;;;;;;;6.43;5.45;;;2.00;99.90;;;;;;5019357;28;20080;-90
2021/10/28 02:43:35;;;;;;;6.05;5.45;;;2.00;99.90;;;;;;5018571;28;20055;-91
2021/10/28 02:46:02;;;;;;;8.23;5.90;;;1.90;99.90;;;;;;5018680;28;20132;-91
2021/10/28 02:48:29;;;;;;;11.80;5.95;;;1.90;99.90;;;;;;5019007;28;20053;-91
2021/10/28 02:50:56;;;;;;;10.77;6.28;;;1.90;99.90;;;;;;5018806;28;20482;-91
2021/10/28 02:53:23;;;;;;;6.75;6.00;;;1.90;99.90;;;;;;5018693;28;20446;-91
2021/10/28 02:55:49;;;;;;;9.20;6.10;;;1.90;99.90;;;;;;5018828;28;20055;-90
2021/10/28 02:58:18;;;;;;;7.82;6.40;;;1.90;99.90;;;;;;5018456;28;20053;-91
2021/10/28 03:00:45;;;;;;;7.45;6.40;;;1.90;99.90;;;;;;5018356;28;20047;-91
2021/10/28 03:03:12;;;;;;;12.55;6.40;;;1.90;99.90;;;;;;5018637;28;20050;-91
2021/10/28 03:05:39;;;;;;;13.68;6.72;;;1.90;99.90;;;;;;5018442;28;20045;-91
2021/10/28 03:08:06;;;;;;;13.38;6.47;;;1.90;99.90;;;;;;5018092;28;20045;-91
2021/10/28 03:10:33;;;;;;;10.23;6.90;;;2.00;99.90;;;;;;5018320;28;20132;-92
2021/10/28 03:12:59;;;;;;;13.25;7.03;;;2.10;99.90;;;;;;5021731;28;20062;-91
2021/10/28 03:15:32;;;;;;;16.70;6.68;;;2.10;99.90;;;;;;5019103;28;20128;-91
2021/10/28 03:26:02;;;;;;;8.68;5.55;;;1.90;99.90;;;;;;5040763;28;20128;-91
2021/10/28 03:28:29;;;;;;;15.00;6.20;;;1.90;99.90;;;;;;5035258;28;20593;-91
2021/10/28 03:30:56;;;;;;;10.73;6.35;;;1.90;99.90;;;;;;5018074;28;20132;-91
2021/10/28 03:33:24;;;;;;;13.10;6.88;;;1.90;99.90;;;;;;5035339;28;20124;-91
2021/10/28 03:35:51;;;;;;;11.90;6.45;;;1.80;99.90;;;;;;5020924;28;20562;-90
2021/10/28 03:38:23;;;;;;;9.18;5.85;;;1.80;99.90;;;;;;5018042;28;20100;-91
2021/10/28 04:05:57;;;;;;;25.92;11.05;;;1.60;99.90;;;;;;5015184;28;20053;-90
2021/10/28 04:16:43;;;;;;;20.92;9.25;;;1.60;99.90;;;;;;5014531;28;20134;-91
2021/10/28 04:29:52;;;;;;;22.55;11.02;;;1.70;99.90;;;;;;5014473;28;20057;-90
2021/10/28 04:32:18;;;;;;;23.50;12.32;;;1.70;99.90;;;;;;4996875;28;20068;-90
2021/10/28 04:34:46;;;;;;;27.48;14.85;;;1.60;99.90;;;;;;4997260;28;20049;-90
2021/10/28 04:37:12;;;;;;;25.95;15.23;;;1.60;99.90;;;;;;4997154;28;20050;-91
2021/10/28 04:39:39;;;;;;;21.73;12.60;;;1.60;99.90;;;;;;5003169;28;20429;-91
2021/10/28 04:42:06;;;;;;;22.02;11.82;;;1.70;99.90;;;;;;5022059;28;20113;-90
2021/10/28 04:44:33;;;;;;;20.17;12.27;;;1.70;99.90;;;;;;5026589;28;20117;-90
2021/10/28 04:47:00;;;;;;;18.00;11.35;;;1.80;99.90;;;;;;5013199;28;20059;-90
2021/10/28 04:49:26;;;;;;;22.50;13.23;;;1.90;99.90;;;;;;5013326;28;20137;-90
2021/10/28 04:51:53;;;;;;;17.88;10.93;;;1.90;99.90;;;;;;5013182;28;20482;-90
2021/10/28 04:54:20;;;;;;;20.65;11.32;;;1.90;99.90;;;;;;5013173;28;20494;-90
2021/10/28 04:56:47;;;;;;;26.20;14.18;;;2.00;99.90;;;;;;5013117;28;20649;-90
2021/10/28 04:59:14;;;;;;;34.70;17.63;;;2.00;99.90;;;;;;5013039;28;20045;-88
2021/10/28 05:01:41;;;;;;;34.83;16.73;;;2.00;99.90;;;;;;5013440;28;20049;-89
2021/10/28 05:04:09;;;;;;;40.17;23.77;;;2.10;99.90;;;;;;5012548;28;20049;-90
2021/10/28 05:06:36;;;;;;;54.35;33.25;;;2.10;99.90;;;;;;5013038;28;20049;-89
2021/10/28 05:09:04;;;;;;;49.75;25.60;;;2.00;99.90;;;;;;5013442;28;20073;-90
2021/10/28 05:11:31;;;;;;;46.42;22.23;;;2.10;99.90;;;;;;5013414;28;20060;-88
2021/10/28 05:13:57;;;;;;;27.23;11.77;;;2.10;99.90;;;;;;5013152;28;20049;-90
2021/10/28 05:16:24;;;;;;;34.35;11.60;;;2.10;99.90;;;;;;5013041;28;20405;-90
2021/10/28 05:18:51;;;;;;;19.08;11.45;;;2.10;99.90;;;;;;5013457;28;20474;-90
2021/10/28 05:21:18;;;;;;;18.20;10.10;;;2.10;99.90;;;;;;5012917;28;20054;-90
2021/10/28 05:23:46;;;;;;;32.60;11.82;;;2.20;99.90;;;;;;5014290;28;20470;-91
2021/10/28 05:26:14;;;;;;;29.98;12.15;;;2.30;99.90;;;;;;5013001;28;20056;-90
2021/10/28 05:28:40;;;;;;;26.38;14.30;;;2.40;99.90;;;;;;5013035;28;20140;-90
2021/10/28 05:31:07;;;;;;;27.58;14.00;;;2.40;99.90;;;;;;5013040;28;20050;-90
2021/10/28 05:33:34;;;;;;;34.75;14.07;;;2.40;99.90;;;;;;5012896;28;20053;-90
2021/10/28 05:36:01;;;;;;;27.77;13.70;;;2.50;99.90;;;;;;5012610;28;20042;-91
2021/10/28 05:38:28;;;;;;;27.00;13.23;;;2.50;99.90;;;;;;5012939;28;20145;-90
2021/10/28 05:40:54;;;;;;;33.38;13.15;;;2.60;99.90;;;;;;5016292;28;20045;-90
2021/10/28 05:43:21;;;;;;;31.33;14.23;;;2.60;99.90;;;;;;5015578;28;20054;-90
2021/10/28 05:45:49;;;;;;;36.65;15.98;;;2.60;99.90;;;;;;5015898;28;20129;-90
2021/10/28 05:48:16;;;;;;;32.35;14.43;;;2.70;99.90;;;;;;5016037;28;20053;-90
2021/10/28 05:50:45;;;;;;;29.35;13.52;;;2.70;99.90;;;;;;5033326;28;20088;-90
2021/10/28 05:53:13;;;;;;;26.90;13.05;;;2.70;99.90;;;;;;5019649;28;20476;-90
2021/10/28 05:55:40;;;;;;;27.70;13.77;;;2.80;99.90;;;;;;5019715;28;20474;-91
2021/10/28 05:58:06;;;;;;;30.00;13.48;;;2.80;99.90;;;;;;5020216;28;20128;-90
2021/10/28 06:00:33;;;;;;;34.47;13.60;;;2.80;99.90;;;;;;5029736;28;20073;-90
2021/10/28 06:03:00;;;;;;;34.50;14.63;;;2.90;99.90;;;;;;5023181;28;20084;-90
2021/10/28 06:05:30;;;;;;;37.10;14.57;;;2.90;99.90;;;;;;5026875;28;20540;-91
2021/10/28 06:07:57;;;;;;;33.05;14.70;;;3.00;99.90;;;;;;5038989;28;20045;-90
2021/10/28 06:10:24;;;;;;;34.30;14.98;;;3.00;99.90;;;;;;5038890;28;20057;-90
2021/10/28 06:12:53;;;;;;;34.53;15.43;;;3.00;99.90;;;;;;5039120;28;20507;-90
2021/10/28 06:15:21;;;;;;;27.55;13.48;;;3.00;99.90;;;;;;5038632;28;20513;-90
2021/10/28 06:20:15;;;;;;;27.05;13.48;;;3.00;99.90;;;;;;5056461;28;20071;-90
2021/10/28 06:22:42;;;;;;;25.80;12.60;;;3.00;99.90;;;;;;5038738;28;20068;-90
2021/10/28 06:25:09;;;;;;;24.92;12.60;;;3.10;99.90;;;;;;5038664;28;20132;-90
2021/10/28 06:27:37;;;;;;;39.25;14.25;;;3.00;99.90;;;;;;5038631;28;20055;-91
2021/10/28 06:30:05;;;;;;;35.42;13.75;;;3.10;99.90;;;;;;5038657;28;20136;-90
2021/10/28 06:32:32;;;;;;;31.83;14.27;;;3.10;99.90;;;;;;5038811;28;20059;-90
2021/10/28 06:35:01;;;;;;;36.50;14.20;;;3.10;99.90;;;;;;5038815;28;20507;-90
2021/10/28 06:37:28;;;;;;;37.33;14.70;;;3.20;99.90;;;;;;5038652;28;20079;-90
2021/10/28 06:39:55;;;;;;;44.05;15.38;;;3.20;99.90;;;;;;5038328;28;20056;-90
2021/10/28 06:42:21;;;;;;;43.78;16.27;;;3.30;99.90;;;;;;5038526;28;20070;-90
2021/10/28 06:44:50;;;;;;;41.90;17.05;;;3.40;99.90;;;;;;5038675;28;20084;-90
2021/10/28 06:47:17;;;;;;;60.72;19.25;;;3.40;99.90;;;;;;5038379;28;20083;-91
2021/10/28 06:49:44;;;;;;;42.03;19.45;;;3.30;99.90;;;;;;5038297;28;20226;-90
2021/10/28 06:52:12;;;;;;;38.30;18.75;;;3.40;99.90;;;;;;5038403;28;20049;-90
2021/10/28 06:54:43;;;;;;;48.95;17.63;;;3.50;99.90;;;;;;5038618;28;20136;-90
2021/10/28 06:57:36;;;;;;;43.67;17.52;;;3.60;99.90;;;;;;5038404;28;20047;-90
2021/10/28 07:02:49;;;;;;;58.92;16.95;;;3.70;99.90;;;;;;5055416;28;20053;-90
2021/10/28 07:05:16;;;;;;;58.63;17.15;;;3.70;99.90;;;;;;5038308;28;20045;-90
2021/10/28 07:07:42;;;;;;;153.13;22.25;;;3.80;99.90;;;;;;5038154;28;20135;-90
2021/10/28 07:12:46;;;;;;;44.90;17.67;;;4.00;99.90;;;;;;5055518;28;20049;-90
2021/10/28 07:15:20;;;;;;;49.83;17.95;;;4.10;99.90;;;;;;5038628;28;20091;-90
2021/10/28 07:18:03;;;;;;;271.70;26.95;;;4.20;99.90;;;;;;5045474;28;20096;-88
2021/10/28 07:29:05;;;;;;;34.00;16.77;;;4.40;99.90;;;;;;5055350;28;20053;-91
2021/10/28 07:39:59;;;;;;;85.53;18.95;;;4.60;99.90;;;;;;5054893;28;20053;-90
2021/10/28 07:56:59;;;;;;;181.23;34.88;;;5.30;99.90;;;;;;5054415;28;20057;-91
2021/10/28 07:59:36;;;;;;;180.30;101.20;;;5.50;99.90;;;;;;5054866;28;20049;-91
2021/10/28 08:23:50;;;;;;;73.55;24.05;;;6.70;99.90;;;;;;5054108;28;20049;-91
2021/10/28 08:29:21;;;;;;;35.80;16.88;;;7.30;99.90;;;;;;5054145;28;20049;-91
2021/10/28 08:31:53;;;;;;;32.83;16.05;;;7.80;99.90;;;;;;5036646;28;20139;-90
2021/10/28 08:34:32;;;;;;;30.77;13.15;;;8.10;99.90;;;;;;5036627;28;20137;-91
2021/10/28 08:37:07;;;;;;;24.15;11.77;;;8.40;99.90;;;;;;5048652;28;20120;-91
2021/10/28 08:39:35;;;;;;;28.40;20.02;;;8.30;99.90;;;;;;5045708;28;20084;-92
2021/10/28 08:42:07;;;;;;;16.50;10.13;;;8.60;99.90;;;;;;5036539;28;20083;-91
2021/10/28 08:44:38;;;;;;;16.60;9.23;;;8.70;99.90;;;;;;5036286;28;20052;-89
2021/10/28 08:47:07;;;;;;;12.43;6.78;;;9.00;99.90;;;;;;5036704;28;20067;-88
2021/10/28 08:49:42;;;;;;;29.83;11.27;;;8.90;99.90;;;;;;5036400;28;20132;-88
2021/10/28 09:26:19;;;;;;;13.38;3.63;;;19.00;99.70;;;;;;5056370;28;20041;-89
2021/10/28 09:28:50;;;;;;;200.30;157.43;;;20.80;95.70;;;;;;5040206;28;20496;-89
2021/10/28 09:31:20;;;;;;;25.95;18.42;;;21.70;89.70;;;;;;5040114;28;20067;-90
2021/10/28 09:33:58;;;;;;;30.45;21.15;;;21.80;90.50;;;;;;5039916;28;20505;-92
2021/10/28 09:51:14;;;;;;;7.18;3.90;;;23.10;80.80;;;;;;5057101;28;20055;-90
2021/10/28 09:54:06;;;;;;;;;;;24.00;78.40;;;;;;5039970;28;20536;-91
2021/10/28 09:59:55;;;;;;;8.07;3.30;;;24.20;77.00;;;;;;5057866;28;20044;-90
2021/10/28 10:02:32;;;;;;;5.67;2.47;;;24.90;75.50;;;;;;5039904;28;20060;-89
2021/10/28 10:05:05;;;;;;;6.30;2.83;;;24.70;76.50;;;;;;5039399;28;20053;-91
2021/10/28 10:07:32;;;;;;;5.28;3.25;;;25.00;76.20;;;;;;5039375;28;20562;-90
2021/10/28 10:09:59;;;;;;;4.53;2.85;;;24.50;73.50;;;;;;5039243;28;20501;-90
2021/10/28 10:12:27;;;;;;;4.18;2.42;;;24.80;74.70;;;;;;5039145;28;20045;-89
2021/10/28 10:14:54;;;;;;;8.13;3.03;;;26.00;70.80;;;;;;5039273;28;20063;-89
2021/10/28 10:17:21;;;;;;;6.72;2.33;;;26.80;72.20;;;;;;5039135;28;20056;-90
2021/10/28 10:19:53;;;;;;;20.15;3.97;;;27.00;68.40;;;;;;5039179;28;20084;-88
2021/10/28 10:25:54;;;;;;;12.57;3.15;;;25.60;74.20;;;;;;5056561;28;20052;-89
2021/10/28 10:29:38;;;;;;;11.80;3.28;;;26.80;71.10;;;;;;5039112;28;20420;-90
2021/10/28 12:22:10;;;;;;;4.85;1.60;;;21.70;62.30;;;;;;5055607;28;20072;-90
2021/10/28 12:24:52;;;;;;;1.20;1.20;;;21.40;63.00;;;;;;5054809;28;20368;-91
2021/10/28 12:45:04;;;;;;;2.40;1.90;;;19.80;68.10;;;;;;5054344;28;20148;-90
2021/10/28 12:47:48;;;;;;;2.25;1.50;;;19.70;69.20;;;;;;5036390;28;20452;-90
2021/10/28 13:50:16;;;;;;;3.85;1.90;;;18.30;79.40;;;;;;5057955;28;20052;-90
2021/10/28 13:53:12;;;;;;;2.00;1.88;;;18.40;81.90;;;;;;5054353;28;20104;-89
2021/10/28 13:58:30;;;;;;;4.63;2.05;;;19.10;77.90;;;;;;5053009;28;20140;-88
2021/10/28 14:14:49;;;;;;;9.25;2.38;;;19.10;77.20;;;;;;5035749;28;20135;-89
2021/10/28 14:18:26;;;;;;;2.92;1.70;;;18.80;79.10;;;;;;5057133;28;20143;-89
2021/10/28 14:23:24;;;;;;;5.13;2.15;;;18.70;79.70;;;;;;5056516;28;20536;-90
2021/10/28 14:34:11;;;;;;;4.57;2.70;;;18.20;79.10;;;;;;5057051;28;20063;-92
2021/10/28 15:31:25;;;;;;;9.70;4.05;;;11.20;99.90;;;;;;5035507;28;20438;-92
2021/10/28 15:36:44;;;;;;;13.30;3.35;;;10.80;99.90;;;;;;5034871;28;20050;-92
2021/10/28 15:39:33;;;;;;;6.90;2.88;;;10.60;99.90;;;;;;5021777;28;20095;-91
2021/10/28 15:42:27;;;;;;;6.32;3.53;;;10.50;99.90;;;;;;5038094;28;20132;-93
2021/10/28 15:53:41;;;;;;;20.05;4.97;;;10.20;99.90;;;;;;5054965;28;20053;-92
2021/10/28 16:01:42;;;;;;;8.65;6.53;;;10.20;99.90;;;;;;5062837;28;20104;-94
2021/10/28 16:23:38;;;;;;;10.98;7.80;;;10.20;99.90;;;;;;5065341;28;20060;-92
2021/10/28 16:26:06;;;;;;;9.95;7.95;;;10.20;99.90;;;;;;5056935;28;20045;-90
2021/10/28 16:28:33;;;;;;;15.68;10.02;;;9.90;99.90;;;;;;5042532;28;20401;-88
2021/10/28 16:31:00;;;;;;;12.10;9.18;;;9.90;99.90;;;;;;5040041;28;20049;-92
2021/10/28 16:33:28;;;;;;;17.63;10.13;;;9.70;99.90;;;;;;5038960;28;20052;-91
2021/10/28 16:35:55;;;;;;;27.80;12.60;;;9.60;99.90;;;;;;5035770;28;20128;-92
2021/10/28 16:38:24;;;;;;;17.42;10.68;;;9.50;99.90;;;;;;5034139;28;20405;-91
2021/10/28 16:40:51;;;;;;;13.68;10.77;;;9.40;99.90;;;;;;5026769;28;20514;-91
2021/10/28 16:43:18;;;;;;;15.00;11.18;;;9.20;99.90;;;;;;5026732;28;20485;-92
2021/10/28 16:45:46;;;;;;;13.95;11.00;;;9.20;99.90;;;;;;5026402;28;20044;-90
2021/10/28 16:48:14;;;;;;;16.83;11.27;;;9.10;99.90;;;;;;5024018;28;20561;-92
2021/10/28 16:50:42;;;;;;;14.70;11.32;;;9.10;99.90;;;;;;5017509;28;20057;-92
2021/10/28 16:53:09;;;;;;;18.90;13.07;;;9.10;99.90;;;;;;5017005;28;20076;-92
2021/10/28 16:55:55;;;;;;;17.27;12.65;;;9.00;99.90;;;;;;5019047;28;20672;-91
2021/10/28 16:58:22;;;;;;;16.83;12.52;;;9.00;99.90;;;;;;5016273;28;20391;-95
2021/10/28 17:00:50;;;;;;;19.27;13.82;;;9.00;99.90;;;;;;5016828;28;20478;-91
2021/10/28 17:03:18;;;;;;;15.55;12.52;;;8.90;99.90;;;;;;5019314;28;20045;-92
2021/10/28 17:05:51;;;;;;;15.23;12.85;;;9.00;99.90;;;;;;5017677;28;20053;-93
2021/10/28 17:08:18;;;;;;;16.85;13.70;;;9.00;99.90;;;;;;5018761;28;20136;-92
2021/10/28 17:10:47;;;;;;;17.10;13.05;;;9.00;99.90;;;;;;5015856;28;20072;-96
2021/10/28 17:13:14;;;;;;;19.67;14.98;;;9.00;99.90;;;;;;5016474;28;20057;-93
2021/10/28 17:15:41;;;;;;;16.95;13.38;;;9.10;99.90;;;;;;5015507;28;20045;-96
2021/10/28 17:18:08;;;;;;;18.92;13.90;;;9.10;99.90;;;;;;5016405;28;20136;-92
2021/10/28 17:20:36;;;;;;;18.90;13.98;;;9.10;99.90;;;;;;5017071;28;20476;-92
2021/10/28 17:23:04;;;;;;;23.42;14.88;;;9.20;99.90;;;;;;5020162;28;20132;-92
2021/10/28 17:25:38;;;;;;;20.35;13.70;;;9.20;99.90;;;;;;5016674;28;20103;-92
2021/10/28 17:28:05;;;;;;;17.30;14.43;;;9.20;99.90;;;;;;5016373;28;20045;-92
2021/10/28 17:30:32;;;;;;;17.27;14.10;;;9.20;99.90;;;;;;5016550;28;20060;-92
2021/10/28 17:33:01;;;;;;;17.92;14.07;;;9.20;99.90;;;;;;5016102;28;20305;-94
2021/10/28 17:35:28;;;;;;;20.00;14.13;;;9.20;99.90;;;;;;5016356;28;20053;-92
2021/10/28 17:37:58;;;;;;;17.70;13.57;;;9.20;99.90;;;;;;5016684;28;20050;-91
2021/10/28 17:40:25;;;;;;;16.90;13.45;;;9.30;99.90;;;;;;5029972;28;20116;-91
2021/10/28 17:42:55;;;;;;;19.35;13.60;;;9.20;99.90;;;;;;5040742;28;20136;-92
2021/10/28 17:45:27;;;;;;;15.60;12.45;;;9.20;99.90;;;;;;5052486;28;20121;-91
2021/10/28 17:47:55;;;;;;;18.35;14.15;;;9.30;99.90;;;;;;5036072;28;20057;-94
2021/10/28 17:50:24;;;;;;;18.30;14.43;;;9.30;99.90;;;;;;5036892;28;20069;-92
2021/10/28 17:52:50;;;;;;;18.58;14.70;;;9.30;99.90;;;;;;5037736;28;20049;-93
2021/10/28 17:55:17;;;;;;;17.17;13.98;;;9.30;99.90;;;;;;5037811;28;20117;-93
2021/10/28 17:57:46;;;;;;;17.98;14.02;;;9.30;99.90;;;;;;5037386;28;20053;-92
2021/10/28 18:00:13;;;;;;;21.02;15.10;;;9.30;99.90;;;;;;5036881;28;20469;-96
2021/10/28 18:02:41;;;;;;;20.23;15.25;;;9.30;99.90;;;;;;5038729;28;20046;-94
2021/10/28 18:05:09;;;;;;;19.40;15.40;;;9.30;99.90;;;;;;5039423;28;20410;-94
2021/10/28 18:07:37;;;;;;;19.80;15.65;;;9.20;99.90;;;;;;5037326;28;20042;-94
2021/10/28 18:10:05;;;;;;;20.60;15.63;;;9.30;99.90;;;;;;5038910;28;20071;-93
2021/10/28 18:12:35;;;;;;;20.63;16.02;;;9.20;99.90;;;;;;5039740;28;20050;-91
2021/10/28 18:15:04;;;;;;;21.17;16.23;;;9.20;99.90;;;;;;5036225;28;20049;-94
2021/10/28 18:17:33;;;;;;;22.02;16.08;;;9.20;99.90;;;;;;5036305;28;20096;-94
2021/10/28 18:20:02;;;;;;;21.88;15.55;;;9.20;99.90;;;;;;5036195;28;20136;-92
2021/10/28 18:22:30;;;;;;;22.55;16.30;;;9.20;99.90;;;;;;5036128;28;20077;-94
2021/10/28 18:25:00;;;;;;;21.98;16.17;;;9.10;99.90;;;;;;5037400;28;20132;-94
2021/10/28 18:27:27;;;;;;;19.48;15.05;;;9.10;99.90;;;;;;5036164;28;20136;-95
2021/10/28 18:29:54;;;;;;;22.17;15.95;;;9.10;99.90;;;;;;5038620;28;20073;-93
2021/10/28 18:32:29;;;;;;;22.05;15.32;;;9.10;99.90;;;;;;5036626;28;20041;-90
2021/10/28 18:34:55;;;;;;;19.20;15.55;;;9.10;99.90;;;;;;5035632;28;20497;-92
2021/10/28 18:37:23;;;;;;;18.58;14.82;;;9.10;99.90;;;;;;5035449;28;20423;-93
2021/10/28 18:39:51;;;;;;;19.55;15.05;;;9.10;99.90;;;;;;5035483;28;20064;-94
2021/10/28 18:42:19;;;;;;;19.85;14.70;;;9.00;99.90;;;;;;5039263;28;20076;-92
2021/10/28 18:44:46;;;;;;;17.38;14.18;;;8.90;99.90;;;;;;5036921;28;20055;-92
2021/10/28 18:47:15;;;;;;;19.92;14.50;;;8.90;99.90;;;;;;5037511;28;20103;-90
2021/10/28 18:49:51;;;;;;;18.17;14.50;;;8.80;99.90;;;;;;5038016;28;20057;-96
2021/10/28 18:52:18;;;;;;;18.17;14.35;;;8.90;99.90;;;;;;5019652;28;20100;-93
2021/10/28 18:54:46;;;;;;;18.70;15.07;;;8.90;99.90;;;;;;5036394;28;20060;-93
2021/10/28 18:57:14;;;;;;;18.65;14.55;;;8.90;99.90;;;;;;5035973;28;20072;-93
2021/10/28 18:59:40;;;;;;;20.00;14.90;;;8.90;99.90;;;;;;5037966;28;20136;-93
2021/10/28 19:02:08;;;;;;;20.52;15.02;;;8.90;99.90;;;;;;5054505;28;20101;-93
2021/10/28 19:04:36;;;;;;;18.67;15.63;;;8.80;99.90;;;;;;5041230;28;20478;-95
2021/10/28 19:07:04;;;;;;;21.05;16.25;;;8.80;99.90;;;;;;5035411;28;20550;-92
2021/10/28 19:09:31;;;;;;;19.45;14.98;;;8.80;99.90;;;;;;5034992;28;20056;-92
2021/10/28 19:11:59;;;;;;;20.13;15.63;;;8.80;99.90;;;;;;5034150;28;20054;-93
2021/10/28 19:14:27;;;;;;;20.20;15.18;;;8.70;99.90;;;;;;5034618;28;20063;-96
2021/10/28 19:16:54;;;;;;;20.73;14.52;;;8.70;99.90;;;;;;5034234;28;20116;-93
2021/10/28 19:19:22;;;;;;;19.35;14.75;;;8.70;99.90;;;;;;5034199;28;20053;-93
2021/10/28 19:21:49;;;;;;;22.17;16.13;;;8.70;99.90;;;;;;5034337;28;20049;-94
2021/10/28 19:24:16;;;;;;;22.70;15.77;;;8.60;99.90;;;;;;5033916;28;20136;-92
2021/10/28 19:26:43;;;;;;;20.42;17.15;;;8.60;99.90;;;;;;5034059;28;20568;-93
2021/10/28 19:29:10;;;;;;;22.98;17.25;;;8.50;99.90;;;;;;5037112;28;20049;-93
2021/10/28 19:31:49;;;;;;;23.27;16.98;;;8.50;99.90;;;;;;5034921;28;20140;-92
2021/10/28 19:34:17;;;;;;;23.85;16.42;;;8.50;99.90;;;;;;5034305;28;20150;-92
2021/10/28 19:36:56;;;;;;;24.73;16.67;;;8.50;99.90;;;;;;5033881;28;20482;-93
2021/10/28 19:42:18;;;;;;;22.25;16.80;;;8.40;99.90;;;;;;5039791;28;20069;-92
2021/10/28 19:47:32;;;;;;;22.42;17.38;;;8.30;99.90;;;;;;5034473;28;20080;-93
2021/10/28 19:49:59;;;;;;;24.80;17.40;;;8.10;99.90;;;;;;5033654;28;20136;-93
2021/10/28 19:52:26;;;;;;;20.55;15.98;;;8.10;99.90;;;;;;5034082;28;20145;-92
2021/10/28 19:54:57;;;;;;;22.38;16.60;;;8.00;99.90;;;;;;5033383;28;20098;-92
2021/10/28 19:57:26;;;;;;;24.50;17.20;;;7.80;99.90;;;;;;5033639;28;20076;-91
2021/10/28 20:00:00;;;;;;;24.17;16.90;;;7.70;99.90;;;;;;5034175;28;20128;-92
2021/10/28 20:03:02;;;;;;;25.48;17.70;;;7.60;99.90;;;;;;5036816;28;20152;-91
2021/10/28 20:05:43;;;;;;;23.23;16.80;;;7.50;99.90;;;;;;5034553;28;20053;-91
2021/10/28 20:21:35;;;;;;;34.75;21.67;;;7.40;99.90;;;;;;5049822;28;20463;-94
2021/10/28 20:24:11;;;;;;;33.92;22.92;;;7.40;99.90;;;;;;5038588;28;20141;-92
2021/10/28 20:26:37;;;;;;;34.03;21.92;;;7.50;99.90;;;;;;5032379;28;20059;-91
2021/10/28 20:29:06;;;;;;;32.55;21.85;;;7.50;99.90;;;;;;5032679;28;20140;-92
2021/10/28 20:31:33;;;;;;;35.53;22.92;;;7.40;99.90;;;;;;5032916;28;20137;-93
2021/10/28 20:34:14;;;;;;;34.78;23.73;;;7.40;99.90;;;;;;5035576;28;20053;-94
2021/10/28 20:39:26;;;;;;;34.20;22.38;;;7.40;99.90;;;;;;5047435;28;20067;-92
2021/10/28 20:41:53;;;;;;;31.35;22.52;;;7.40;99.90;;;;;;5016708;28;20049;-93
2021/10/28 20:44:20;;;;;;;34.80;23.70;;;7.40;99.90;;;;;;5016768;28;20050;-91
2021/10/28 20:46:47;;;;;;;32.08;23.17;;;7.40;99.90;;;;;;5033677;28;20423;-92
2021/10/28 20:49:14;;;;;;;35.72;23.10;;;7.50;99.90;;;;;;5017183;28;20128;-94
2021/10/28 20:51:41;;;;;;;32.40;22.30;;;7.50;99.90;;;;;;5016361;28;20533;-92
2021/10/28 20:54:08;;;;;;;35.90;24.20;;;7.50;99.90;;;;;;5015346;28;20065;-96
2021/10/28 20:56:36;;;;;;;33.00;22.73;;;7.50;99.90;;;;;;5016553;28;20482;-92
2021/10/28 20:59:02;;;;;;;33.15;21.83;;;7.50;99.90;;;;;;5016149;28;20145;-94
2021/10/28 21:01:29;;;;;;;35.75;23.70;;;7.50;99.90;;;;;;5016045;28;20451;-93
2021/10/28 21:03:57;;;;;;;35.20;23.95;;;7.40;99.90;;;;;;5016733;28;20049;-94
2021/10/28 21:06:23;;;;;;;32.63;23.30;;;7.40;99.90;;;;;;5015900;28;20136;-93
2021/10/28 21:08:50;;;;;;;36.08;23.05;;;7.50;99.90;;;;;;5016597;28;20137;-92
2021/10/28 21:11:17;;;;;;;38.05;24.38;;;7.40;99.90;;;;;;5016760;28;20128;-91
2021/10/28 21:13:44;;;;;;;35.78;23.60;;;7.40;99.90;;;;;;5016239;28;20145;-94
2021/10/28 21:16:10;;;;;;;35.88;24.08;;;7.50;99.90;;;;;;5016199;28;20132;-93
2021/10/28 21:18:38;;;;;;;35.22;22.85;;;7.40;99.90;;;;;;5016547;28;20071;-92
2021/10/28 21:21:04;;;;;;;30.23;20.80;;;7.50;99.90;;;;;;5017259;28;20137;-93
2021/10/28 21:23:31;;;;;;;33.50;22.25;;;7.40;99.90;;;;;;5021007;28;20548;-92
2021/10/28 21:25:58;;;;;;;35.20;23.08;;;7.40;99.90;;;;;;5020841;28;20045;-94